createdAt,value
2024-01-27T00:02:12.773Z,1.00
2024-01-27T00:04:41.373Z,1.33
2024-01-27T00:07:10.218Z,0.90
2024-01-27T00:09:38.897Z,1.20
2024-01-27T00:12:08.101Z,1.63
2024-01-27T00:14:40.746Z,1.00
2024-01-27T00:17:09.381Z,1.47
2024-01-27T00:19:41.218Z,0.90
2024-01-27T00:22:10.682Z,1.67
2024-01-27T00:24:39.204Z,0.53
2024-01-27T00:27:07.929Z,1.60
2024-01-27T00:29:38.064Z,0.90
2024-01-27T00:32:06.834Z,0.80
2024-01-27T00:34:35.550Z,0.90
2024-01-27T00:37:04.187Z,1.03
2024-01-27T00:39:34.969Z,1.27
2024-01-27T00:42:03.517Z,0.57
2024-01-27T00:44:32.165Z,2.70
2024-01-27T00:47:02.111Z,1.27
2024-01-27T00:49:30.761Z,0.60
2024-01-27T00:51:59.366Z,0.50
2024-01-27T00:54:28.644Z,1.63
2024-01-27T00:56:57.322Z,0.87
2024-01-27T00:59:26.073Z,0.57
2024-01-27T01:01:54.640Z,1.03
2024-01-27T01:04:24.732Z,0.60
2024-01-27T01:06:53.324Z,0.70
2024-01-27T01:09:22.063Z,0.80
2024-01-27T01:11:50.917Z,0.53
2024-01-27T01:14:19.764Z,0.80
2024-01-27T01:16:48.300Z,0.60
2024-01-27T01:19:17.002Z,0.97
2024-01-27T01:21:46.934Z,1.53
2024-01-27T01:24:15.595Z,0.73
2024-01-27T01:26:44.178Z,1.07
2024-01-27T01:29:12.658Z,0.30
2024-01-27T01:31:43.748Z,0.70
2024-01-27T01:34:12.409Z,0.37
2024-01-27T01:36:40.973Z,0.87
2024-01-27T01:39:14.883Z,0.30
2024-01-27T01:41:43.939Z,0.77
2024-01-27T01:44:12.626Z,0.40
2024-01-27T01:46:41.172Z,0.30
2024-01-27T01:49:10.340Z,0.47
2024-01-27T01:51:38.977Z,0.60
2024-01-27T01:54:09.254Z,1.20
2024-01-27T01:56:39.704Z,2.20
2024-01-27T01:59:08.443Z,0.70
2024-01-27T02:01:37.171Z,1.10
2024-01-27T02:04:07.147Z,1.50
2024-01-27T02:06:35.924Z,0.57
2024-01-27T02:09:06.403Z,1.37
2024-01-27T02:11:35.111Z,2.17
2024-01-27T02:14:05.746Z,1.70
2024-01-27T02:16:34.297Z,1.90
2024-01-27T02:19:02.992Z,0.70
2024-01-27T02:21:31.740Z,0.50
2024-01-27T02:24:00.952Z,0.77
2024-01-27T02:26:30.986Z,0.83
2024-01-27T02:28:59.508Z,0.83
2024-01-27T02:31:28.154Z,1.00
2024-01-27T02:33:57.217Z,1.30
2024-01-27T02:36:26.189Z,1.10
2024-01-27T02:38:54.890Z,1.27
2024-01-27T02:41:23.543Z,0.97
2024-01-27T02:43:53.542Z,0.90
2024-01-27T02:46:22.193Z,0.87
2024-01-27T02:48:50.882Z,0.67
2024-01-27T02:51:22.927Z,0.57
2024-01-27T02:53:51.718Z,1.90
2024-01-27T02:56:20.435Z,1.00
2024-01-27T02:58:49.098Z,1.20
2024-01-27T03:01:19.073Z,0.90
2024-01-27T03:03:47.791Z,0.70
2024-01-27T03:06:16.567Z,0.93
2024-01-27T03:08:45.087Z,0.83
2024-01-27T03:11:13.590Z,0.70
2024-01-27T03:13:46.545Z,0.93
2024-01-27T03:16:15.828Z,0.40
2024-01-27T03:18:45.967Z,0.80
2024-01-27T03:21:14.777Z,1.37
2024-01-27T03:23:43.352Z,0.73
2024-01-27T03:26:11.880Z,1.07
2024-01-27T03:28:40.467Z,1.30
2024-01-27T03:31:09.165Z,1.27
2024-01-27T03:33:37.916Z,0.67
2024-01-27T03:36:12.359Z,0.83
2024-01-27T03:38:41.069Z,1.07
2024-01-27T03:41:09.899Z,1.63
2024-01-27T03:43:38.514Z,1.50
2024-01-27T03:46:07.139Z,1.77
2024-01-27T03:48:36.677Z,1.17
2024-01-27T03:51:05.575Z,1.17
2024-01-27T03:53:35.621Z,1.17
2024-01-27T03:56:05.519Z,1.47
2024-01-27T03:58:34.381Z,1.37
2024-01-27T04:01:03.275Z,2.23
2024-01-27T04:03:31.923Z,0.67
2024-01-27T04:06:00.604Z,2.03
2024-01-27T04:08:29.244Z,1.00
2024-01-27T04:10:59.347Z,1.33
2024-01-27T04:13:28.147Z,0.50
2024-01-27T04:15:58.477Z,1.30
2024-01-27T04:18:27.135Z,0.93
2024-01-27T04:20:55.929Z,0.83
2024-01-27T04:23:24.449Z,0.83
2024-01-27T04:25:52.952Z,0.77
2024-01-27T04:28:23.054Z,1.53
2024-01-27T04:30:51.554Z,1.13
2024-01-27T04:33:20.474Z,1.13
2024-01-27T04:35:49.392Z,1.40
2024-01-27T04:38:17.999Z,1.17
2024-01-27T04:40:46.598Z,1.20
2024-01-27T04:43:19.878Z,1.83
2024-01-27T04:45:50.070Z,0.97
2024-01-27T04:48:19.028Z,1.73
2024-01-27T04:50:47.985Z,1.73
2024-01-27T04:53:16.946Z,0.50
2024-01-27T04:55:45.543Z,3.07
2024-01-27T04:58:14.241Z,1.93
2024-01-27T05:00:42.865Z,3.80
2024-01-27T05:03:15.695Z,3.83
2024-01-27T05:05:45.211Z,3.40
2024-01-27T05:08:13.788Z,4.07
2024-01-27T05:10:42.439Z,1.93
2024-01-27T05:13:11.000Z,3.53
2024-01-27T05:15:40.206Z,3.47
2024-01-27T05:18:09.213Z,2.17
2024-01-27T05:20:39.167Z,2.47
2024-01-27T05:23:07.684Z,2.03
2024-01-27T05:25:36.264Z,0.90
2024-01-27T05:28:05.086Z,1.90
2024-01-27T05:30:33.763Z,0.90
2024-01-27T05:33:02.464Z,2.30
2024-01-27T05:35:31.252Z,0.90
2024-01-27T05:38:01.338Z,1.03
2024-01-27T05:40:29.810Z,2.60
2024-01-27T05:42:58.408Z,2.00
2024-01-27T05:45:27.860Z,1.23
2024-01-27T05:47:56.488Z,1.70
2024-01-27T05:50:25.219Z,2.00
2024-01-27T05:52:54.149Z,1.70
2024-01-27T05:55:24.204Z,2.03
2024-01-27T05:57:52.785Z,1.50
2024-01-27T06:00:21.716Z,2.10
2024-01-27T06:02:50.472Z,3.43
2024-01-27T06:05:19.053Z,2.20
2024-01-27T06:07:49.188Z,2.20
2024-01-27T06:10:19.585Z,2.13
2024-01-27T06:12:49.706Z,4.63
2024-01-27T06:15:18.554Z,1.50
2024-01-27T06:17:47.097Z,1.67
2024-01-27T06:20:17.686Z,3.47
2024-01-27T06:22:46.345Z,3.00
2024-01-27T06:25:15.085Z,3.80
2024-01-27T06:27:43.733Z,3.10
2024-01-27T06:30:15.504Z,2.00
2024-01-27T06:32:44.333Z,3.17
2024-01-27T06:35:12.911Z,2.70
2024-01-27T06:37:41.633Z,3.27
2024-01-27T06:40:11.576Z,4.33
2024-01-27T06:42:40.249Z,3.47
2024-01-27T06:45:09.424Z,2.40
2024-01-27T06:47:41.716Z,3.13
2024-01-27T06:50:11.108Z,4.20
2024-01-27T06:52:39.693Z,5.33
2024-01-27T06:55:08.955Z,3.33
2024-01-27T06:57:37.531Z,3.77
2024-01-27T07:00:07.045Z,3.00
2024-01-27T07:02:35.720Z,2.33
2024-01-27T07:05:07.022Z,3.20
2024-01-27T07:07:35.622Z,1.77
2024-01-27T07:10:04.670Z,1.67
2024-01-27T07:12:33.207Z,0.73
2024-01-27T07:15:02.513Z,1.67
2024-01-27T07:17:32.220Z,1.80
2024-01-27T07:20:00.849Z,3.53
2024-01-27T07:22:31.130Z,3.30
2024-01-27T07:24:59.751Z,2.80
2024-01-27T07:27:28.306Z,1.83
2024-01-27T07:29:56.882Z,4.23
2024-01-27T07:32:27.434Z,3.30
2024-01-27T07:34:56.071Z,3.43
2024-01-27T07:37:24.689Z,2.67
2024-01-27T07:39:54.740Z,2.63
2024-01-27T07:42:23.257Z,1.90
2024-01-27T07:44:51.953Z,1.40
2024-01-27T07:47:20.749Z,1.43
2024-01-27T07:49:50.448Z,0.83
2024-01-27T07:52:19.684Z,1.67
2024-01-27T07:54:48.377Z,2.13
2024-01-27T07:57:18.392Z,2.10
2024-01-27T07:59:47.026Z,1.90
2024-01-27T08:02:15.761Z,2.80
2024-01-27T08:04:44.471Z,1.27
2024-01-27T08:07:16.105Z,3.03
2024-01-27T08:09:44.820Z,1.90
2024-01-27T08:12:13.439Z,2.37
2024-01-27T08:14:43.759Z,2.80
2024-01-27T08:17:12.387Z,2.17
2024-01-27T08:19:41.133Z,1.53
2024-01-27T08:22:10.646Z,2.37
2024-01-27T08:24:39.504Z,1.10
2024-01-27T08:27:08.308Z,1.13
2024-01-27T08:29:36.939Z,1.50
2024-01-27T08:32:07.997Z,2.30
2024-01-27T08:34:36.638Z,1.47
2024-01-27T08:37:05.357Z,0.50
2024-01-27T08:39:34.128Z,1.23
2024-01-27T08:42:02.839Z,1.57
2024-01-27T08:44:31.400Z,1.77
2024-01-27T08:47:01.953Z,2.80
2024-01-27T08:49:33.060Z,3.37
2024-01-27T08:52:01.753Z,1.50
2024-01-27T08:54:30.707Z,1.57
2024-01-27T08:56:59.560Z,1.83
2024-01-27T08:59:28.191Z,1.73
2024-01-27T09:01:56.982Z,1.70
2024-01-27T09:04:25.592Z,2.57
2024-01-27T09:06:55.645Z,2.37
2024-01-27T09:09:24.238Z,2.33
2024-01-27T09:11:52.823Z,1.00
2024-01-27T09:14:21.528Z,1.33
2024-01-27T09:16:50.184Z,2.50
2024-01-27T09:19:18.876Z,0.87
2024-01-27T09:21:48.040Z,0.90
2024-01-27T09:24:18.244Z,3.40
2024-01-27T09:26:46.870Z,1.83
2024-01-27T09:29:15.512Z,1.27
2024-01-27T09:31:44.162Z,0.67
2024-01-27T09:34:13.015Z,1.27
2024-01-27T09:36:41.915Z,0.90
2024-01-27T09:39:10.878Z,2.10
2024-01-27T09:41:41.726Z,1.50
2024-01-27T09:44:10.303Z,1.27
2024-01-27T09:46:38.971Z,1.37
2024-01-27T09:49:08.218Z,1.33
2024-01-27T09:51:37.089Z,1.10
2024-01-27T09:54:05.957Z,1.70
2024-01-27T09:56:35.384Z,0.60
2024-01-27T09:59:08.468Z,1.07
2024-01-27T10:01:39.683Z,1.47
2024-01-27T10:04:11.266Z,1.30
2024-01-27T10:06:40.861Z,1.83
2024-01-27T10:09:11.334Z,1.53
2024-01-27T10:11:44.950Z,1.33
2024-01-27T10:14:14.978Z,0.70
2024-01-27T10:16:44.616Z,1.20
2024-01-27T10:19:18.966Z,1.43
2024-01-27T10:21:48.296Z,0.60
2024-01-27T10:24:17.073Z,0.93
2024-01-27T10:26:45.668Z,1.07
2024-01-27T10:29:15.773Z,2.03
2024-01-27T10:31:44.353Z,1.27
2024-01-27T10:34:16.743Z,0.73
2024-01-27T10:36:46.856Z,1.10
2024-01-27T10:39:23.038Z,0.97
2024-01-27T10:41:52.962Z,2.67
2024-01-27T10:44:23.367Z,0.80
2024-01-27T10:46:52.967Z,0.53
2024-01-27T10:49:21.804Z,0.90
2024-01-27T10:51:56.580Z,0.40
2024-01-27T10:54:28.371Z,0.50
2024-01-27T10:57:00.334Z,0.40
2024-01-27T10:59:30.663Z,0.60
2024-01-27T11:01:59.766Z,0.63
2024-01-27T11:04:31.077Z,0.40
2024-01-27T11:07:01.103Z,0.40
2024-01-27T11:09:31.805Z,0.53
2024-01-27T11:12:02.107Z,0.40
2024-01-27T11:14:32.293Z,0.30
2024-01-27T11:17:00.946Z,0.30
2024-01-27T11:19:30.097Z,0.30
2024-01-27T11:22:07.530Z,0.30
2024-01-27T11:24:36.317Z,0.30
2024-01-27T11:27:06.032Z,0.20
2024-01-27T11:29:36.245Z,0.20
2024-01-27T11:32:06.105Z,0.30
2024-01-27T11:34:46.277Z,0.20
2024-01-27T11:37:18.555Z,0.30
2024-01-27T11:39:47.482Z,0.40
2024-01-27T11:42:17.468Z,0.20
2024-01-27T11:44:47.630Z,0.30
2024-01-27T11:47:19.887Z,0.30
2024-01-27T11:49:55.251Z,0.30
2024-01-27T11:52:24.432Z,0.20
2024-01-27T11:54:57.412Z,0.40
2024-01-27T11:57:26.702Z,0.40
2024-01-27T11:59:57.611Z,0.30
2024-01-27T12:02:26.223Z,0.20
2024-01-27T12:04:55.276Z,0.20
2024-01-27T12:07:24.130Z,0.30
2024-01-27T12:09:52.833Z,0.30
2024-01-27T12:12:22.373Z,0.30
2024-01-27T12:14:52.679Z,0.30
2024-01-27T12:17:25.220Z,0.23
2024-01-27T12:19:56.120Z,0.20
2024-01-27T12:22:27.404Z,0.30
2024-01-27T12:24:56.651Z,0.30
2024-01-27T12:27:25.775Z,0.20
2024-01-27T12:29:54.553Z,0.20
2024-01-27T12:32:24.582Z,0.40
2024-01-27T12:34:53.447Z,0.20
2024-01-27T12:37:24.907Z,0.30
2024-01-27T12:39:53.583Z,0.30
2024-01-27T12:42:22.215Z,0.20
2024-01-27T12:44:51.173Z,0.30
2024-01-27T12:47:21.316Z,0.53
2024-01-27T12:49:51.969Z,0.47
2024-01-27T12:52:20.631Z,0.30
2024-01-27T12:54:49.283Z,0.30
2024-01-27T12:57:19.102Z,0.30
2024-01-27T12:59:47.836Z,0.20
2024-01-27T13:02:16.712Z,0.83
2024-01-27T13:04:45.340Z,0.40
2024-01-27T13:07:16.091Z,0.43
2024-01-27T13:09:44.772Z,0.30
2024-01-27T13:12:13.417Z,0.30
2024-01-27T13:14:42.062Z,0.60
2024-01-27T13:17:10.844Z,0.20
2024-01-27T13:19:39.698Z,0.27
2024-01-27T13:22:08.282Z,0.40
2024-01-27T13:24:39.757Z,0.40
2024-01-27T13:27:09.561Z,0.37
2024-01-27T13:29:38.202Z,0.30
2024-01-27T13:32:07.471Z,0.83
2024-01-27T13:34:36.745Z,0.50
2024-01-27T13:37:06.218Z,0.30
2024-01-27T13:39:34.806Z,0.30
2024-01-27T13:42:06.287Z,0.30
2024-01-27T13:44:37.124Z,0.20
2024-01-27T13:47:06.304Z,0.30
2024-01-27T13:49:35.462Z,0.20
2024-01-27T13:52:06.358Z,0.20
2024-01-27T13:54:36.086Z,0.30
2024-01-27T13:57:06.554Z,0.30
2024-01-27T13:59:35.228Z,0.30
2024-01-27T14:02:04.097Z,0.30
2024-01-27T14:04:32.804Z,0.60
2024-01-27T14:07:04.367Z,0.40
2024-01-27T14:09:33.377Z,0.30
2024-01-27T14:12:02.484Z,0.30
2024-01-27T14:14:32.924Z,0.30
2024-01-27T14:17:01.561Z,0.30
2024-01-27T14:19:30.303Z,0.40
2024-01-27T14:21:58.918Z,0.30
2024-01-27T14:24:27.798Z,0.20
2024-01-27T14:26:56.546Z,0.30
2024-01-27T14:29:25.272Z,0.30
2024-01-27T14:31:55.424Z,0.40
2024-01-27T14:34:24.250Z,0.30
2024-01-27T14:36:54.001Z,0.40
2024-01-27T14:39:25.367Z,0.77
2024-01-27T14:41:54.134Z,0.20
2024-01-27T14:44:23.432Z,0.30
2024-01-27T14:46:52.233Z,0.40
2024-01-27T14:49:23.762Z,0.30
2024-01-27T14:51:52.567Z,0.47
2024-01-27T14:54:21.692Z,0.50
2024-01-27T14:56:50.344Z,0.47
2024-01-27T14:59:20.059Z,0.80
2024-01-27T15:01:50.302Z,1.23
2024-01-27T15:04:19.043Z,1.03
2024-01-27T15:06:49.183Z,0.60
2024-01-27T15:09:18.676Z,0.73
2024-01-27T15:11:47.433Z,1.10
2024-01-27T15:14:15.986Z,0.70
2024-01-27T15:16:44.756Z,0.30
2024-01-27T15:19:13.480Z,0.60
2024-01-27T15:21:42.161Z,0.30
2024-01-27T15:24:12.329Z,0.80
2024-01-27T15:26:41.004Z,0.87
2024-01-27T15:29:09.872Z,0.50
2024-01-27T15:31:38.882Z,0.73
2024-01-27T15:34:09.757Z,1.07
2024-01-27T15:36:38.671Z,0.50
2024-01-27T15:39:09.284Z,0.30
2024-01-27T15:41:41.144Z,0.90
2024-01-27T15:44:09.972Z,0.90
2024-01-27T15:46:38.692Z,0.30
2024-01-27T15:49:07.331Z,0.43
2024-01-27T15:51:36.070Z,0.40
2024-01-27T15:54:05.587Z,0.70
2024-01-27T15:56:34.268Z,0.20
2024-01-27T15:59:04.305Z,0.30
2024-01-27T16:01:32.828Z,0.70
2024-01-27T16:04:01.592Z,0.90
2024-01-27T16:06:30.486Z,0.90
2024-01-27T16:08:59.183Z,1.70
2024-01-27T16:11:27.723Z,1.10
2024-01-27T16:13:56.338Z,1.07
2024-01-27T16:16:27.479Z,3.07
2024-01-27T16:18:56.396Z,3.13
2024-01-27T16:21:26.318Z,2.07
2024-01-27T16:23:55.009Z,1.63
2024-01-27T16:26:25.738Z,1.60
2024-01-27T16:28:54.456Z,0.90
2024-01-27T16:31:23.070Z,1.17
2024-01-27T16:33:53.402Z,0.63
2024-01-27T16:36:22.348Z,0.97
2024-01-27T16:38:50.829Z,1.50
2024-01-27T16:41:18.365Z,1.70
2024-01-27T16:43:47.059Z,1.20
2024-01-27T16:46:15.602Z,1.37
2024-01-27T16:49:01.821Z,1.83
2024-01-27T16:51:31.839Z,2.17
2024-01-27T16:54:01.443Z,1.53
2024-01-27T16:56:31.595Z,1.00
2024-01-27T16:59:00.177Z,1.50
2024-01-27T17:01:28.848Z,1.30
2024-01-27T17:03:57.495Z,0.93
2024-01-27T17:06:26.228Z,3.30
2024-01-27T17:08:56.266Z,1.53
2024-01-27T17:11:24.890Z,2.90
2024-01-27T17:13:53.435Z,2.97
2024-01-27T17:16:21.992Z,1.60
2024-01-27T17:18:50.768Z,0.93
2024-01-27T17:21:20.937Z,1.90
2024-01-27T17:23:49.635Z,1.23
2024-01-27T17:26:19.727Z,1.73
2024-01-27T17:28:48.357Z,0.80
2024-01-27T17:31:16.981Z,1.70
2024-01-27T17:33:47.863Z,0.53
2024-01-27T17:36:17.337Z,0.70
2024-01-27T17:38:46.154Z,1.20
2024-01-27T17:41:14.698Z,1.47
2024-01-27T17:43:44.720Z,3.63
2024-01-27T17:46:14.524Z,2.30
2024-01-27T17:48:43.371Z,1.40
2024-01-27T17:51:12.277Z,2.20
2024-01-27T17:53:40.929Z,1.77
2024-01-27T17:56:09.608Z,1.10
2024-01-27T17:58:38.196Z,1.70
2024-01-27T18:01:08.448Z,2.33
2024-01-27T18:03:37.229Z,2.63
2024-01-27T18:06:06.182Z,0.90
2024-01-27T18:08:34.751Z,1.70
2024-01-27T18:11:03.406Z,2.53
2024-01-27T18:13:32.253Z,0.90
2024-01-27T18:16:01.579Z,1.00
2024-01-27T18:18:32.169Z,0.80
2024-01-27T18:21:00.924Z,2.10
2024-01-27T18:23:29.770Z,1.47
2024-01-27T18:25:58.409Z,0.57
2024-01-27T18:28:28.081Z,1.10
2024-01-27T18:30:56.852Z,1.40
2024-01-27T18:33:26.192Z,0.43
2024-01-27T18:35:59.226Z,1.40
2024-01-27T18:38:27.843Z,0.60
2024-01-27T18:40:56.460Z,0.37
2024-01-27T18:43:25.122Z,0.30
2024-01-27T18:45:55.383Z,1.13
2024-01-27T18:48:24.051Z,0.60
2024-01-27T18:50:52.665Z,0.30
2024-01-27T18:53:22.839Z,0.80
2024-01-27T18:55:51.425Z,0.30
2024-01-27T18:58:23.221Z,0.50
2024-01-27T19:00:52.915Z,0.70
2024-01-27T19:03:21.672Z,0.50
2024-01-27T19:05:50.330Z,0.60
2024-01-27T19:08:19.145Z,0.97
2024-01-27T19:10:49.188Z,2.10
2024-01-27T19:13:17.739Z,0.77
2024-01-27T19:15:46.205Z,1.20
2024-01-27T19:18:14.990Z,0.90
2024-01-27T19:20:44.163Z,0.50
2024-01-27T19:23:13.384Z,1.80
2024-01-27T19:25:42.596Z,2.60
2024-01-27T19:28:13.885Z,1.40
2024-01-27T19:30:43.110Z,0.93
2024-01-27T19:33:11.877Z,0.60
2024-01-27T19:35:40.517Z,0.60
2024-01-27T19:38:10.013Z,0.70
2024-01-27T19:40:38.600Z,1.97
2024-01-27T19:43:07.447Z,1.07
2024-01-27T19:45:37.529Z,1.80
2024-01-27T19:48:08.511Z,3.10
2024-01-27T19:50:37.355Z,1.57
2024-01-27T19:53:11.577Z,2.47
2024-01-27T19:55:41.142Z,3.20
2024-01-27T19:58:09.896Z,1.50
2024-01-27T20:00:41.733Z,3.93
2024-01-27T20:03:10.450Z,1.23
2024-01-27T20:05:39.275Z,0.90
2024-01-27T20:08:09.562Z,1.20
2024-01-27T20:10:38.052Z,0.60
2024-01-27T20:13:07.736Z,1.73
2024-01-27T20:15:36.448Z,0.40
2024-01-27T20:18:08.660Z,1.77
2024-01-27T20:20:39.553Z,1.33
2024-01-27T20:23:08.085Z,0.77
2024-01-27T20:25:36.833Z,0.80
2024-01-27T20:28:05.849Z,0.40
2024-01-27T20:30:34.982Z,0.30
2024-01-27T20:33:03.886Z,0.40
2024-01-27T20:35:34.212Z,1.03
2024-01-27T20:38:02.746Z,0.40
2024-01-27T20:40:31.333Z,0.30
2024-01-27T20:43:01.836Z,0.50
2024-01-27T20:45:30.468Z,0.50
2024-01-27T20:47:59.226Z,0.50
2024-01-27T20:50:28.095Z,0.50
2024-01-27T20:52:58.481Z,0.50
2024-01-27T20:55:27.842Z,0.67
2024-01-27T20:57:56.610Z,0.40
2024-01-27T21:00:26.470Z,0.70
2024-01-27T21:02:55.275Z,0.40
2024-01-27T21:05:23.853Z,0.60
2024-01-27T21:07:52.528Z,0.53
2024-01-27T21:10:22.689Z,0.87
2024-01-27T21:12:52.224Z,0.53
2024-01-27T21:15:21.019Z,0.43
2024-01-27T21:17:50.395Z,0.40
2024-01-27T21:20:19.126Z,0.90
2024-01-27T21:22:47.660Z,0.60
2024-01-27T21:25:16.367Z,0.30
2024-01-27T21:27:46.717Z,0.23
2024-01-27T21:30:15.917Z,0.20
2024-01-27T21:32:44.558Z,0.63
2024-01-27T21:35:13.584Z,0.93
2024-01-27T21:37:42.194Z,0.47
2024-01-27T21:40:12.327Z,0.30
2024-01-27T21:42:40.952Z,0.30
2024-01-27T21:45:12.082Z,0.20
2024-01-27T21:47:40.729Z,0.50
2024-01-27T21:50:10.144Z,0.30
2024-01-27T21:52:38.869Z,1.97
2024-01-27T21:55:08.359Z,1.20
2024-01-27T21:57:36.861Z,1.33
2024-01-27T22:00:06.224Z,2.47
2024-01-27T22:02:41.458Z,1.27
2024-01-27T22:05:11.941Z,1.80
2024-01-27T22:07:40.929Z,1.23
2024-01-27T22:10:11.118Z,1.43
2024-01-27T22:12:39.772Z,1.07
2024-01-27T22:15:09.875Z,0.90
2024-01-27T22:17:42.300Z,0.50
2024-01-27T22:20:13.226Z,0.87
2024-01-27T22:22:41.990Z,0.50
2024-01-27T22:25:12.529Z,1.17
2024-01-27T22:27:42.491Z,1.00
2024-01-27T22:30:15.839Z,0.43
2024-01-27T22:32:46.032Z,0.90
2024-01-27T22:35:14.644Z,1.20
2024-01-27T22:37:43.384Z,0.60
2024-01-27T22:40:13.047Z,1.07
2024-01-27T22:42:42.023Z,1.03
2024-01-27T22:45:11.402Z,0.60
2024-01-27T22:47:41.124Z,0.50
2024-01-27T22:50:11.790Z,0.60
2024-01-27T22:52:41.218Z,1.40
2024-01-27T22:55:10.524Z,0.73
2024-01-27T22:57:39.221Z,1.33
2024-01-27T23:00:20.826Z,1.23
2024-01-27T23:02:50.362Z,0.40
2024-01-27T23:05:20.306Z,0.47
2024-01-27T23:07:48.877Z,0.53
2024-01-27T23:10:17.852Z,0.40
2024-01-27T23:12:46.698Z,0.30
2024-01-27T23:15:15.269Z,0.93
2024-01-27T23:17:43.844Z,0.20
2024-01-27T23:20:13.626Z,0.40
2024-01-27T23:22:43.842Z,0.30
2024-01-27T23:25:12.510Z,0.60
2024-01-27T23:27:41.551Z,0.30
2024-01-27T23:30:11.412Z,0.47
2024-01-27T23:32:40.191Z,0.40
2024-01-27T23:35:10.023Z,0.73
2024-01-27T23:37:39.024Z,0.20
2024-01-27T23:40:10.339Z,0.60
2024-01-27T23:42:41.916Z,0.30
2024-01-27T23:45:11.330Z,0.30
2024-01-27T23:47:40.040Z,1.17
2024-01-27T23:50:09.787Z,0.97
2024-01-27T23:52:39.650Z,0.70
2024-01-27T23:55:10.328Z,0.73
2024-01-27T23:57:41.481Z,0.83
